Time;durP1;ratioP1;P1;durP2;ratioP2;P2;SDS_P1;SDS_P2;PMS_P1;PMS_P2;Temp;Humidity;BMP_temperature;BMP_pressure;BME280_temperature;BME280_humidity;BME280_pressure;Samples;Min_cycle;Max_cycle;Signal;HPM_P1;HPM_P2
2022/03/06 00:02:11;;;;;;;15.75;10.60;;;;;;;;;;5015591;28;20045;-79
2022/03/06 00:04:38;;;;;;;15.68;10.82;;;;;;;;;;5033446;28;20045;-78
2022/03/06 00:07:04;;;;;;;19.30;11.93;;;2.60;99.90;;;;;;5024027;28;20055;-77
2022/03/06 00:09:30;;;;;;;16.00;10.45;;;;;;;;;;5035233;28;20390;-77
2022/03/06 00:11:56;;;;;;;17.30;10.90;;;;;;;;;;5035112;28;20040;-77
2022/03/06 00:14:22;;;;;;;14.80;10.18;;;;;;;;;;5017997;28;20106;-77
2022/03/06 00:16:48;;;;;;;15.93;11.20;;;;;;;;;;5035218;28;20048;-77
2022/03/06 00:19:14;;;;;;;14.23;10.23;;;;;;;;;;5016796;28;20107;-77
2022/03/06 00:21:40;;;;;;;13.00;9.70;;;2.30;99.90;;;;;;5015238;28;20038;-78
2022/03/06 00:24:06;;;;;;;16.55;10.68;;;2.20;99.90;;;;;;5015304;28;20498;-78
2022/03/06 00:26:33;;;;;;;17.90;11.73;;;;;;;;;;5015280;28;20048;-77
2022/03/06 00:28:59;;;;;;;16.08;10.82;;;2.20;99.90;;;;;;5032524;28;20045;-78
2022/03/06 00:31:25;;;;;;;16.35;10.70;;;;;;;;;;5014813;28;20041;-77
2022/03/06 00:33:52;;;;;;;12.60;9.80;;;2.20;99.90;;;;;;5014831;28;20539;-77
2022/03/06 00:36:18;;;;;;;14.57;10.55;;;;;;;;;;5048012;28;20041;-78
2022/03/06 00:38:44;;;;;;;14.90;10.45;;;;;;;;;;5017519;28;20060;-78
2022/03/06 00:41:13;;;;;;;14.27;10.75;;;2.20;99.90;;;;;;5034150;28;20056;-77
2022/03/06 00:43:39;;;;;;;19.33;10.98;;;;;;;;;;5035017;28;20045;-78
2022/03/06 00:46:05;;;;;;;18.00;10.77;;;;;;;;;;5034246;28;20051;-78
2022/03/06 00:48:31;;;;;;;18.65;11.13;;;;;;;;;;5016564;28;20128;-78
2022/03/06 00:50:57;;;;;;;19.65;9.98;;;;;;;;;;5034443;28;20132;-78
2022/03/06 00:53:23;;;;;;;14.13;11.20;;;;;;;;;;5033880;28;20052;-78
2022/03/06 00:55:49;;;;;;;17.38;11.57;;;;;;;;;;5034342;28;20040;-78
2022/03/06 00:58:15;;;;;;;15.63;10.20;;;;;;;;;;5034502;28;20155;-78
2022/03/06 01:00:47;;;;;;;13.25;10.20;;;1.90;99.90;;;;;;5017608;28;20045;-77
2022/03/06 01:03:19;;;;;;;15.13;10.60;;;2.20;99.90;;;;;;5034054;28;20131;-78
2022/03/06 01:05:46;;;;;;;16.65;11.05;;;;;;;;;;5017691;28;20040;-78
2022/03/06 01:08:12;;;;;;;15.00;10.68;;;;;;;;;;5052086;28;20389;-78
2022/03/06 01:10:39;;;;;;;16.08;10.80;;;2.30;99.90;;;;;;5034473;28;20132;-77
2022/03/06 01:13:07;;;;;;;17.30;10.63;;;2.40;99.90;;;;;;5052013;28;20045;-77
2022/03/06 01:15:33;;;;;;;16.38;10.95;;;;;;;;;;5034380;28;20053;-78
2022/03/06 01:17:59;;;;;;;15.65;10.40;;;;;;;;;;5033555;28;20037;-78
2022/03/06 01:20:26;;;;;;;16.40;11.88;;;;;;;;;;5034123;28;20095;-78
2022/03/06 01:22:52;;;;;;;16.52;10.82;;;2.40;99.90;;;;;;5034299;28;20367;-78
2022/03/06 01:25:19;;;;;;;16.83;9.85;;;;;;;;;;5033938;28;20052;-78
2022/03/06 01:27:45;;;;;;;13.63;9.55;;;;;;;;;;5033695;28;20045;-78
2022/03/06 01:30:12;;;;;;;13.25;9.70;;;2.60;99.90;;;;;;5017899;28;20041;-78
2022/03/06 01:32:38;;;;;;;17.00;10.45;;;2.50;99.90;;;;;;5052263;28;20425;-78
2022/03/06 01:35:05;;;;;;;14.73;9.73;;;2.40;99.90;;;;;;5034196;28;20480;-78
2022/03/06 01:37:32;;;;;;;13.82;9.27;;;2.60;99.90;;;;;;5017645;28;20048;-78
2022/03/06 01:39:58;;;;;;;16.25;9.52;;;;;;;;;;5033828;28;20045;-78
2022/03/06 01:42:24;;;;;;;13.55;8.23;;;;;;;;;;5017194;28;20115;-78
2022/03/06 01:44:50;;;;;;;11.80;8.52;;;;;;;;;;5033722;28;20506;-78
2022/03/06 01:47:35;;;;;;;13.02;8.45;;;3.60;99.90;;;;;;5016831;28;20044;-78
2022/03/06 01:50:03;;;;;;;12.23;8.32;;;2.70;99.90;;;;;;5033642;28;20100;-78
2022/03/06 01:52:29;;;;;;;13.25;7.97;;;;;;;;;;5034018;28;20147;-78
2022/03/06 01:54:55;;;;;;;15.05;7.43;;;;;;;;;;5033793;28;20045;-78
2022/03/06 01:57:21;;;;;;;12.00;7.35;;;;;;;;;;5033603;28;20045;-78
2022/03/06 01:59:47;;;;;;;10.82;7.22;;;;;;;;;;5033753;28;20041;-78
2022/03/06 02:02:13;;;;;;;12.10;6.93;;;;;;;;;;5051479;28;20037;-78
2022/03/06 02:04:39;;;;;;;11.85;6.93;;;;;;;;;;5034698;28;20114;-78
2022/03/06 02:07:05;;;;;;;10.70;7.43;;;2.80;99.90;;;;;;5055652;28;20116;-78
2022/03/06 02:09:31;;;;;;;11.60;6.25;;;;;;;;;;5037085;28;20462;-78
2022/03/06 02:14:41;;;;;;;11.68;6.28;;;2.60;99.90;;;;;;5037112;28;20052;-78
2022/03/06 02:17:07;;;;;;;10.05;5.97;;;;;;;;;;5037236;28;20032;-78
2022/03/06 02:19:57;;;;;;;10.77;6.03;;;2.80;99.90;;;;;;5020969;28;20037;-78
2022/03/06 02:22:25;;;;;;;12.32;6.55;;;2.80;99.90;;;;;;5037341;28;20080;-78
2022/03/06 02:24:51;;;;;;;11.18;5.20;;;2.90;99.90;;;;;;5020623;28;20477;-78
2022/03/06 02:27:26;;;;;;;9.85;4.88;;;3.90;99.90;;;;;;5020272;28;20053;-78
2022/03/06 02:29:52;;;;;;;10.57;5.57;;;3.20;99.90;;;;;;5036872;28;20049;-78
2022/03/06 02:32:20;;;;;;;8.80;5.55;;;3.00;99.90;;;;;;5054707;28;20056;-78
2022/03/06 02:34:48;;;;;;;9.07;4.97;;;2.70;99.90;;;;;;5036751;28;20498;-78
2022/03/06 02:37:20;;;;;;;10.50;5.30;;;3.00;99.90;;;;;;5036826;28;20037;-78
2022/03/06 02:39:46;;;;;;;9.50;5.05;;;;;;;;;;5019956;28;20132;-78
2022/03/06 02:42:26;;;;;;;9.85;5.32;;;2.90;99.90;;;;;;5036309;28;20489;-78
2022/03/06 02:44:52;;;;;;;11.50;5.60;;;;;;;;;;5036640;28;20053;-79
2022/03/06 02:47:18;;;;;;;11.13;5.82;;;;;;;;;;5036608;28;20057;-78
2022/03/06 02:49:44;;;;;;;10.38;5.93;;;;;;;;;;5036819;28;20041;-78
2022/03/06 02:52:10;;;;;;;11.40;5.72;;;;;;;;;;5036457;28;20508;-78
2022/03/06 02:54:36;;;;;;;10.23;5.97;;;;;;;;;;5036790;28;20045;-79
2022/03/06 02:57:06;;;;;;;13.77;6.03;;;2.70;99.90;;;;;;5036277;28;20037;-78
2022/03/06 02:59:33;;;;;;;11.98;5.85;;;2.70;99.90;;;;;;5036509;28;20044;-78
2022/03/06 03:01:58;;;;;;;9.80;5.57;;;3.00;99.90;;;;;;5036481;28;20048;-78
2022/03/06 03:04:24;;;;;;;9.18;6.13;;;2.50;99.90;;;;;;5036307;28;20406;-78
2022/03/06 03:06:50;;;;;;;9.30;5.68;;;2.90;99.90;;;;;;5036303;28;20048;-78
2022/03/06 03:09:20;;;;;;;10.63;5.68;;;2.80;99.90;;;;;;5020061;28;20048;-78
2022/03/06 03:11:54;;;;;;;10.02;5.35;;;2.50;99.90;;;;;;5036245;28;20045;-78
2022/03/06 03:14:20;;;;;;;10.15;6.50;;;2.60;99.90;;;;;;5036166;28;20099;-78
2022/03/06 03:16:46;;;;;;;9.25;5.30;;;2.90;99.90;;;;;;5019307;28;20040;-78
2022/03/06 03:19:12;;;;;;;9.95;5.88;;;;;;;;;;5036068;28;20044;-78
2022/03/06 03:21:38;;;;;;;10.23;6.13;;;;;;;;;;5035951;28;20525;-78
2022/03/06 03:24:05;;;;;;;12.45;6.32;;;2.60;99.90;;;;;;5036368;28;20037;-78
2022/03/06 03:26:30;;;;;;;10.02;5.68;;;2.70;99.90;;;;;;5036003;28;20044;-78
2022/03/06 03:28:56;;;;;;;10.48;6.13;;;2.70;99.90;;;;;;5035751;28;20045;-78
2022/03/06 03:31:22;;;;;;;11.23;6.22;;;2.90;99.90;;;;;;5053598;28;20040;-78
2022/03/06 03:33:47;;;;;;;11.75;6.25;;;2.90;99.90;;;;;;5053832;28;20040;-78
2022/03/06 03:36:13;;;;;;;10.52;6.10;;;2.60;99.90;;;;;;5035569;28;20478;-79
2022/03/06 03:38:40;;;;;;;12.90;8.15;;;2.70;99.90;;;;;;5035761;28;20508;-78
2022/03/06 03:41:07;;;;;;;18.00;6.75;;;2.90;99.90;;;;;;5036024;28;20073;-78
2022/03/06 03:43:32;;;;;;;12.85;8.00;;;2.90;99.90;;;;;;5019733;28;20393;-78
2022/03/06 03:45:58;;;;;;;11.15;6.72;;;2.90;99.90;;;;;;5035549;28;20053;-79
2022/03/06 03:48:28;;;;;;;11.70;6.22;;;2.80;99.90;;;;;;5035397;28;20045;-79
2022/03/06 03:50:54;;;;;;;11.50;6.70;;;;;;;;;;5035071;28;20102;-79
2022/03/06 03:53:20;;;;;;;11.95;6.18;;;2.50;99.90;;;;;;5035340;28;20053;-78
2022/03/06 03:55:46;;;;;;;10.98;6.25;;;2.90;99.90;;;;;;5035469;28;20122;-78
2022/03/06 03:58:12;;;;;;;10.95;6.28;;;2.80;99.90;;;;;;5018816;28;20068;-78
2022/03/06 04:00:38;;;;;;;12.23;7.28;;;2.70;99.90;;;;;;5035825;28;20029;-78
2022/03/06 04:03:03;;;;;;;12.23;7.28;;;2.80;99.90;;;;;;5018471;28;20486;-79
2022/03/06 04:05:29;;;;;;;12.27;7.38;;;2.80;99.90;;;;;;5035370;28;20045;-79
2022/03/06 04:07:55;;;;;;;13.88;7.28;;;2.60;99.90;;;;;;5035388;28;20097;-79
2022/03/06 04:10:20;;;;;;;10.55;6.45;;;3.00;99.90;;;;;;5053178;28;20124;-79
2022/03/06 04:12:46;;;;;;;13.52;6.97;;;2.50;99.90;;;;;;5034907;28;20406;-78
2022/03/06 04:15:12;;;;;;;12.52;6.68;;;2.70;99.90;;;;;;5035076;28;20037;-78
2022/03/06 04:17:37;;;;;;;10.80;5.53;;;2.70;99.90;;;;;;5018658;28;20403;-79
2022/03/06 04:20:04;;;;;;;10.68;6.13;;;2.90;99.90;;;;;;5035043;28;20048;-78
2022/03/06 04:22:29;;;;;;;9.40;5.70;;;3.00;99.90;;;;;;5034454;28;20041;-78
2022/03/06 04:24:55;;;;;;;10.13;6.13;;;2.70;99.90;;;;;;5034873;28;20124;-79
2022/03/06 04:27:21;;;;;;;10.48;5.63;;;2.80;99.90;;;;;;5033577;28;20045;-79
2022/03/06 04:29:46;;;;;;;11.48;6.45;;;2.90;99.90;;;;;;5018234;28;20037;-78
2022/03/06 04:32:12;;;;;;;12.02;5.70;;;2.40;99.90;;;;;;5034590;28;20041;-78
2022/03/06 04:34:38;;;;;;;9.85;5.97;;;2.80;99.90;;;;;;5034870;28;20049;-78
2022/03/06 04:37:04;;;;;;;10.02;5.82;;;2.90;99.90;;;;;;5018153;28;20036;-79
2022/03/06 04:39:30;;;;;;;13.18;7.53;;;2.80;99.90;;;;;;5034555;28;20195;-78
2022/03/06 04:41:56;;;;;;;10.55;6.18;;;2.70;99.90;;;;;;5034322;28;20136;-78
2022/03/06 04:44:21;;;;;;;10.93;7.22;;;2.60;99.90;;;;;;5034400;28;20041;-79
2022/03/06 04:46:52;;;;;;;14.02;6.05;;;2.90;99.90;;;;;;5017872;28;20179;-79
2022/03/06 04:49:18;;;;;;;13.07;8.82;;;2.60;99.90;;;;;;5034572;28;20048;-79
2022/03/06 04:51:44;;;;;;;9.18;6.15;;;2.40;99.90;;;;;;5034409;28;20041;-78
2022/03/06 04:54:10;;;;;;;9.75;5.75;;;;;;;;;;5033822;28;20077;-78
2022/03/06 04:56:36;;;;;;;9.57;5.13;;;2.80;99.90;;;;;;5034961;28;20055;-79
2022/03/06 04:59:02;;;;;;;9.20;4.20;;;2.90;99.90;;;;;;5034407;28;20509;-78
2022/03/06 05:01:27;;;;;;;8.63;4.47;;;2.50;99.90;;;;;;5034322;28;20103;-79
2022/03/06 05:03:53;;;;;;;7.75;4.68;;;2.80;99.90;;;;;;5034357;28;20123;-79
2022/03/06 05:06:19;;;;;;;7.90;4.65;;;2.80;99.90;;;;;;5034444;28;20102;-78
2022/03/06 05:08:44;;;;;;;7.15;3.85;;;2.70;99.90;;;;;;5017314;28;20592;-78
2022/03/06 05:11:10;;;;;;;8.32;4.57;;;2.50;99.90;;;;;;5034418;28;20044;-78
2022/03/06 05:13:37;;;;;;;6.50;3.60;;;3.20;99.90;;;;;;5034408;28;20494;-78
2022/03/06 05:16:03;;;;;;;8.02;4.10;;;2.90;99.90;;;;;;5033973;28;20037;-78
2022/03/06 05:18:29;;;;;;;9.73;4.13;;;2.50;99.90;;;;;;5033850;28;20052;-78
2022/03/06 05:20:55;;;;;;;6.88;3.78;;;2.50;99.90;;;;;;5017713;28;20120;-78
2022/03/06 05:23:21;;;;;;;7.82;3.92;;;2.80;99.90;;;;;;5034329;28;20439;-78
2022/03/06 05:25:47;;;;;;;6.25;3.72;;;3.10;99.90;;;;;;5052000;28;20041;-78
2022/03/06 05:28:14;;;;;;;6.30;3.38;;;2.60;99.90;;;;;;5017397;28;20090;-78
2022/03/06 05:30:40;;;;;;;5.85;2.75;;;;;;;;;;5052284;28;20389;-78
2022/03/06 05:33:06;;;;;;;6.65;2.67;;;2.70;99.90;;;;;;5034220;28;20080;-78
2022/03/06 05:35:32;;;;;;;7.93;2.60;;;2.90;99.90;;;;;;5033853;28;20126;-79
2022/03/06 05:37:58;;;;;;;8.43;3.22;;;2.60;99.90;;;;;;5033508;28;20055;-78
2022/03/06 05:40:23;;;;;;;7.35;2.92;;;3.00;99.90;;;;;;5055041;28;20053;-78
2022/03/06 05:43:01;;;;;;;4.57;2.10;;;2.80;99.90;;;;;;5055743;28;20036;-78
2022/03/06 05:45:27;;;;;;;5.75;2.78;;;3.20;99.90;;;;;;5038150;28;20489;-78
2022/03/06 05:47:52;;;;;;;5.55;2.80;;;2.60;99.90;;;;;;5021391;28;20068;-79
2022/03/06 05:50:18;;;;;;;8.15;2.75;;;2.90;99.90;;;;;;5038130;28;20044;-79
2022/03/06 05:52:44;;;;;;;5.03;2.85;;;3.00;99.90;;;;;;5037415;28;20052;-79
2022/03/06 05:55:10;;;;;;;5.05;2.20;;;2.90;99.90;;;;;;5055491;28;20040;-78
2022/03/06 05:57:36;;;;;;;4.55;2.15;;;2.90;99.90;;;;;;5055894;28;20033;-78
2022/03/06 06:00:08;;;;;;;6.70;2.65;;;2.70;99.90;;;;;;5037650;28;20072;-78
2022/03/06 06:02:35;;;;;;;6.53;2.42;;;2.60;99.90;;;;;;5037640;28;20095;-78
2022/03/06 06:05:00;;;;;;;6.75;2.45;;;2.90;99.90;;;;;;5055350;28;20041;-78
2022/03/06 06:07:26;;;;;;;10.10;4.68;;;2.40;99.90;;;;;;5037442;28;20090;-78
2022/03/06 06:09:52;;;;;;;4.82;2.47;;;2.70;99.90;;;;;;5037200;28;20044;-78
2022/03/06 06:12:17;;;;;;;7.85;2.60;;;2.80;99.90;;;;;;5021139;28;20053;-79
2022/03/06 06:15:06;;;;;;;5.85;2.47;;;2.60;99.90;;;;;;5037254;28;20040;-78
2022/03/06 06:17:32;;;;;;;4.97;2.50;;;3.40;99.90;;;;;;5037282;28;20033;-79
2022/03/06 06:20:00;;;;;;;5.32;2.42;;;;;;;;;;5037112;28;20037;-78
2022/03/06 06:22:28;;;;;;;4.85;2.20;;;3.10;99.90;;;;;;5036565;28;20489;-79
2022/03/06 06:24:54;;;;;;;4.70;2.47;;;2.80;99.90;;;;;;5036914;28;20053;-78
2022/03/06 06:27:20;;;;;;;6.82;3.00;;;2.50;99.90;;;;;;5037037;28;20139;-78
2022/03/06 06:29:46;;;;;;;6.90;2.38;;;2.80;99.90;;;;;;5037140;28;20485;-78
2022/03/06 06:32:11;;;;;;;5.07;2.50;;;2.90;99.90;;;;;;5020061;28;20176;-78
2022/03/06 06:34:37;;;;;;;8.95;2.67;;;2.70;99.90;;;;;;5037014;28;20110;-79
2022/03/06 06:37:03;;;;;;;6.25;2.67;;;3.20;99.90;;;;;;5036956;28;20044;-78
2022/03/06 06:39:28;;;;;;;4.90;2.03;;;2.60;99.90;;;;;;5036798;28;20080;-78
2022/03/06 06:41:54;;;;;;;5.72;1.83;;;2.80;99.90;;;;;;5036863;28;20120;-78
2022/03/06 06:44:20;;;;;;;5.35;2.17;;;2.80;99.90;;;;;;5036740;28;20044;-78
2022/03/06 06:46:46;;;;;;;4.30;1.85;;;2.60;99.90;;;;;;5036360;28;20040;-78
2022/03/06 06:49:11;;;;;;;4.53;1.73;;;2.70;99.90;;;;;;5036571;28;20073;-78
2022/03/06 06:51:38;;;;;;;4.40;1.98;;;2.70;99.90;;;;;;5036083;28;20037;-79
2022/03/06 06:54:05;;;;;;;5.18;2.03;;;2.30;99.90;;;;;;5036532;28;20076;-79
2022/03/06 06:56:31;;;;;;;4.18;1.90;;;2.60;99.90;;;;;;5036609;28;20118;-78
2022/03/06 06:58:57;;;;;;;4.53;1.50;;;2.10;99.90;;;;;;5036501;28;20063;-78
2022/03/06 07:01:23;;;;;;;4.15;2.05;;;;;;;;;;5035838;28;20484;-78
2022/03/06 07:03:49;;;;;;;5.60;2.13;;;2.70;99.90;;;;;;5036342;28;20557;-79
2022/03/06 07:06:14;;;;;;;3.95;1.98;;;2.10;99.90;;;;;;5036239;28;20097;-78
2022/03/06 07:08:40;;;;;;;4.70;1.65;;;2.50;99.90;;;;;;5036198;28;20041;-78
2022/03/06 07:11:06;;;;;;;4.72;1.80;;;2.40;99.90;;;;;;5036184;28;20052;-78
2022/03/06 07:16:51;;;;;;;3.25;1.60;;;2.40;99.90;;;;;;5016558;28;20106;-79
2022/03/06 07:19:17;;;;;;;5.20;1.90;;;2.50;99.90;;;;;;5034273;28;20112;-79
2022/03/06 07:21:44;;;;;;;5.82;2.00;;;2.00;99.90;;;;;;5016494;28;20045;-79
2022/03/06 07:24:10;;;;;;;3.55;1.77;;;2.00;99.90;;;;;;4999866;28;20053;-79
2022/03/06 07:26:36;;;;;;;5.85;2.58;;;2.00;99.90;;;;;;5034495;28;20041;-79
2022/03/06 07:29:02;;;;;;;16.50;6.57;;;2.60;99.90;;;;;;5030893;28;20045;-78
2022/03/06 07:31:28;;;;;;;53.90;17.45;;;2.40;99.90;;;;;;5035857;28;20047;-78
2022/03/06 07:33:54;;;;;;;69.75;28.80;;;2.10;99.90;;;;;;5035762;28;20045;-79
2022/03/06 07:36:19;;;;;;;8.70;3.00;;;2.30;99.90;;;;;;5035753;28;20045;-78
2022/03/06 07:38:45;;;;;;;5.53;2.53;;;2.30;99.90;;;;;;5035098;28;20107;-79
2022/03/06 07:41:12;;;;;;;7.65;3.20;;;2.30;99.90;;;;;;5019395;28;20045;-79
2022/03/06 07:43:38;;;;;;;4.78;2.20;;;3.40;99.90;;;;;;5033340;28;20182;-79
2022/03/06 07:46:04;;;;;;;5.28;2.13;;;2.60;99.90;;;;;;5035084;28;20048;-74
2022/03/06 07:48:30;;;;;;;5.07;2.30;;;;;;;;;;5052631;28;20413;-80
2022/03/06 07:50:55;;;;;;;3.58;1.75;;;2.70;99.90;;;;;;5051350;28;20481;-79
2022/03/06 07:53:21;;;;;;;6.00;2.78;;;2.50;99.90;;;;;;5035237;28;20041;-78
2022/03/06 07:55:47;;;;;;;5.82;2.53;;;2.80;99.90;;;;;;5034617;28;20044;-80
2022/03/06 07:58:12;;;;;;;6.32;2.33;;;2.90;99.90;;;;;;5052023;28;20036;-79
2022/03/06 08:00:41;;;;;;;7.25;4.03;;;;;;;;;;5032429;28;20573;-79
2022/03/06 08:03:07;;;;;;;6.38;3.17;;;3.10;99.90;;;;;;5031732;28;20044;-79
2022/03/06 08:05:33;;;;;;;7.10;2.75;;;2.90;99.90;;;;;;5015095;28;20037;-82
2022/03/06 08:07:58;;;;;;;18.13;7.35;;;3.20;99.90;;;;;;5032387;28;20053;-78
2022/03/06 08:10:24;;;;;;;14.55;7.07;;;;;;;;;;5031998;28;20079;-80
2022/03/06 08:12:50;;;;;;;17.42;8.55;;;;;;;;;;5030759;28;20481;-79
2022/03/06 08:15:16;;;;;;;9.05;4.07;;;;;;;;;;5031389;28;20037;-78
2022/03/06 08:17:42;;;;;;;7.18;3.00;;;;;;;;;;5032190;28;20482;-77
2022/03/06 08:20:20;;;;;;;6.07;3.28;;;3.50;99.90;;;;;;5032133;28;20294;-79
2022/03/06 08:23:09;;;;;;;7.15;3.55;;;;;;;;;;5033650;28;20091;-79
2022/03/06 08:25:35;;;;;;;8.52;3.55;;;;;;;;;;5034555;28;20041;-79
2022/03/06 08:28:01;;;;;;;7.40;3.15;;;;;;;;;;5052186;28;20039;-77
2022/03/06 08:30:27;;;;;;;5.32;2.35;;;;;;;;;;5033789;28;20825;-79
2022/03/06 08:32:53;;;;;;;7.97;2.85;;;;;;;;;;5033946;28;20037;-80
2022/03/06 08:35:20;;;;;;;7.35;3.30;;;;;;;;;;5033745;28;20049;-77
2022/03/06 08:37:46;;;;;;;5.45;2.30;;;;;;;;;;5050271;28;20029;-80
2022/03/06 08:40:12;;;;;;;8.30;2.45;;;;;;;;;;5022386;28;20500;-80
2022/03/06 08:42:38;;;;;;;5.15;2.33;;;;;;;;;;5016010;28;20080;-79
2022/03/06 08:45:04;;;;;;;6.35;2.17;;;;;;;;;;5034841;28;20394;-83
2022/03/06 08:47:31;;;;;;;7.75;2.25;;;;;;;;;;5027278;28;20794;-79
2022/03/06 08:49:57;;;;;;;5.80;2.25;;;;;;;;;;5015703;28;20072;-80
2022/03/06 08:52:23;;;;;;;6.97;2.58;;;;;;;;;;5015895;28;20111;-81
2022/03/06 08:54:49;;;;;;;6.78;2.30;;;;;;;;;;5013944;28;20049;-81
2022/03/06 08:57:14;;;;;;;7.57;3.47;;;3.90;99.90;;;;;;5026347;28;20029;-78
2022/03/06 08:59:40;;;;;;;24.33;9.15;;;3.50;99.90;;;;;;5024152;28;20059;-79
2022/03/06 09:02:06;;;;;;;7.63;3.03;;;;;;;;;;5014164;28;20041;-78
2022/03/06 09:04:33;;;;;;;52.38;21.55;;;4.20;99.90;;;;;;5015299;28;20049;-77
2022/03/06 09:06:59;;;;;;;25.17;11.65;;;;;;;;;;5031145;28;20057;-78
2022/03/06 09:09:25;;;;;;;15.63;6.82;;;3.70;99.90;;;;;;5023263;28;20037;-79
2022/03/06 09:11:51;;;;;;;13.90;5.65;;;3.90;99.90;;;;;;5018417;28;20056;-81
2022/03/06 09:14:19;;;;;;;8.90;2.40;;;;;;;;;;5022762;28;20049;-80
2022/03/06 09:16:45;;;;;;;5.97;2.20;;;;;;;;;;5028761;28;20064;-80
2022/03/06 09:19:11;;;;;;;9.93;3.65;;;;;;;;;;5020713;28;20121;-78
2022/03/06 09:21:38;;;;;;;8.57;3.97;;;;;;;;;;5005977;28;20181;-80
2022/03/06 09:24:05;;;;;;;6.10;2.40;;;;;;;;;;5021392;28;20099;-79
2022/03/06 09:26:31;;;;;;;4.15;2.10;;;;;;;;;;5004164;28;20429;-78
2022/03/06 09:28:57;;;;;;;5.03;2.53;;;;;;;;;;5039459;28;20041;-78
2022/03/06 09:31:23;;;;;;;6.82;2.30;;;;;;;;;;5039752;28;20517;-79
2022/03/06 09:33:49;;;;;;;5.78;2.63;;;;;;;;;;5034833;28;20037;-80
2022/03/06 09:36:15;;;;;;;5.43;2.78;;;;;;;;;;5030433;28;20378;-83
2022/03/06 09:38:41;;;;;;;6.75;2.50;;;;;;;;;;5038027;28;20060;-78
2022/03/06 09:41:07;;;;;;;7.35;2.45;;;;;;;;;;5040412;28;20110;-80
2022/03/06 09:43:34;;;;;;;7.60;3.05;;;;;;;;;;5039446;28;20132;-80
2022/03/06 09:46:04;;;;;;;5.15;2.53;;;;;;;;;;5039333;28;20059;-82
2022/03/06 09:48:30;;;;;;;6.80;2.67;;;;;;;;;;5038853;28;20393;-79
2022/03/06 09:50:56;;;;;;;8.80;3.25;;;;;;;;;;5038171;28;20044;-81
2022/03/06 09:53:22;;;;;;;7.70;2.80;;;;;;;;;;5023031;28;20047;-78
2022/03/06 09:55:48;;;;;;;7.30;3.80;;;;;;;;;;5039727;28;20044;-80
2022/03/06 09:58:15;;;;;;;6.00;2.70;;;;;;;;;;5040034;28;20049;-80
2022/03/06 10:00:41;;;;;;;4.53;2.55;;;;;;;;;;5039514;28;20052;-81
2022/03/06 10:03:07;;;;;;;6.18;2.63;;;;;;;;;;5040377;28;20729;-83
2022/03/06 10:05:33;;;;;;;8.35;2.78;;;;;;;;;;5040042;28;20055;-81
2022/03/06 10:11:14;;;;;;;4.20;2.03;;;;;;;;;;5038699;28;20045;-80
2022/03/06 10:13:44;;;;;;;5.13;2.45;;;;;;;;;;5036174;28;20080;-82
2022/03/06 10:16:14;;;;;;;7.25;2.53;;;;;;;;;;5042520;28;20044;-82
2022/03/06 10:18:42;;;;;;;6.20;3.42;;;5.00;99.90;;;;;;5038684;28;20044;-82
2022/03/06 10:21:13;;;;;;;8.93;2.55;;;4.80;99.90;;;;;;5039825;28;20481;-83
2022/03/06 10:23:40;;;;;;;5.38;2.58;;;;;;;;;;5040089;28;20056;-82
2022/03/06 10:26:14;;;;;;;5.63;2.50;;;5.60;99.90;;;;;;5036197;28;20049;-81
2022/03/06 10:28:44;;;;;;;5.63;2.45;;;5.70;99.90;;;;;;5020214;28;20118;-82
2022/03/06 10:31:10;;;;;;;6.47;2.67;;;;;;;;;;5035998;28;20084;-82
2022/03/06 10:33:36;;;;;;;6.35;2.35;;;5.30;99.90;;;;;;5036387;28;20052;-81
2022/03/06 10:36:02;;;;;;;5.25;2.53;;;;;;;;;;5019553;28;20047;-82
2022/03/06 10:38:30;;;;;;;5.70;2.03;;;5.10;99.90;;;;;;5052391;28;20121;-82
2022/03/06 10:41:17;;;;;;;8.95;2.47;;;5.20;99.90;;;;;;5036689;28;20084;-78
2022/03/06 10:43:49;;;;;;;5.18;2.20;;;4.70;99.90;;;;;;5019407;28;20051;-79
2022/03/06 10:46:21;;;;;;;4.32;2.08;;;5.20;99.90;;;;;;5035962;28;20045;-81
2022/03/06 10:48:56;;;;;;;5.25;2.15;;;5.20;99.90;;;;;;5034888;28;20053;-80
2022/03/06 10:51:37;;;;;;;5.20;2.20;;;5.40;99.90;;;;;;5036114;28;20047;-81
2022/03/06 10:54:02;;;;;;;8.18;2.33;;;5.10;99.90;;;;;;5041640;28;20573;-81
2022/03/06 10:56:28;;;;;;;5.68;2.10;;;5.30;99.90;;;;;;5051975;28;20120;-82
2022/03/06 10:58:56;;;;;;;6.20;2.72;;;5.40;99.90;;;;;;5036169;28;20118;-82
2022/03/06 11:01:23;;;;;;;4.70;2.20;;;5.10;99.90;;;;;;5019650;28;20033;-82
2022/03/06 11:03:50;;;;;;;4.75;1.80;;;5.50;99.90;;;;;;5019648;28;20517;-83
2022/03/06 11:06:19;;;;;;;7.03;2.70;;;5.40;99.90;;;;;;5036295;28;20563;-83
2022/03/06 11:08:58;;;;;;;6.10;2.00;;;5.80;99.90;;;;;;5019861;28;20091;-84
2022/03/06 11:11:25;;;;;;;4.93;1.80;;;;;;;;;;5035321;28;20077;-81
2022/03/06 11:13:54;;;;;;;6.90;2.35;;;5.90;99.90;;;;;;5035805;28;20124;-81
2022/03/06 11:16:20;;;;;;;5.72;2.22;;;;;;;;;;5028080;28;20037;-81
2022/03/06 11:18:46;;;;;;;5.07;2.10;;;5.90;99.90;;;;;;5016676;28;20045;-81
2022/03/06 11:21:13;;;;;;;5.47;2.30;;;5.90;99.90;;;;;;5035406;28;20129;-80
2022/03/06 11:23:40;;;;;;;5.22;2.28;;;;;;;;;;5036348;28;20044;-81
2022/03/06 11:26:17;;;;;;;6.80;3.00;;;5.90;99.90;;;;;;5036112;28;20370;-80
2022/03/06 11:29:09;;;;;;;5.85;2.50;;;6.10;99.90;;;;;;5034919;28;20051;-71
2022/03/06 11:31:46;;;;;;;5.03;1.85;;;6.30;99.90;;;;;;5029118;28;20045;-82
2022/03/06 11:34:21;;;;;;;5.72;2.03;;;6.10;99.90;;;;;;5035214;28;20048;-77
2022/03/06 11:36:48;;;;;;;5.60;2.03;;;6.10;99.90;;;;;;5033915;28;20367;-83
2022/03/06 11:39:35;;;;;;;5.47;2.17;;;6.30;99.90;;;;;;5016474;28;20056;-85
2022/03/06 11:42:04;;;;;;;7.15;2.20;;;6.20;99.90;;;;;;5034810;28;20045;-81
2022/03/06 11:44:37;;;;;;;4.75;2.10;;;6.60;99.90;;;;;;5049200;28;20497;-83
2022/03/06 11:47:13;;;;;;;5.30;2.28;;;5.90;99.90;;;;;;5015155;28;20052;-84
2022/03/06 11:49:39;;;;;;;6.65;2.60;;;6.50;99.90;;;;;;5030059;28;20052;-83
2022/03/06 11:52:26;;;;;;;6.30;2.35;;;6.10;99.90;;;;;;5035483;28;20055;-84
2022/03/06 11:54:52;;;;;;;6.55;2.13;;;6.20;99.90;;;;;;5018087;28;20083;-85
2022/03/06 11:57:47;;;;;;;5.13;2.00;;;6.40;99.90;;;;;;5015812;28;20041;-85
2022/03/06 12:00:21;;;;;;;6.93;2.10;;;6.10;99.90;;;;;;4979429;28;20049;-84
2022/03/06 12:02:48;;;;;;;6.05;2.05;;;;;;;;;;4995283;28;20049;-74
2022/03/06 12:05:16;;;;;;;4.32;2.00;;;;;;;;;;5012639;28;20049;-81
2022/03/06 12:07:49;;;;;;;5.70;2.20;;;6.20;99.90;;;;;;5018569;28;20052;-81
2022/03/06 12:10:17;;;;;;;5.20;1.85;;;6.40;99.90;;;;;;5051269;28;20045;-81
2022/03/06 12:12:43;;;;;;;4.68;1.80;;;;;;;;;;5039484;28;20068;-77
2022/03/06 12:15:14;;;;;;;6.82;2.65;;;6.20;99.90;;;;;;5019277;28;20049;-79
2022/03/06 12:17:40;;;;;;;6.38;2.75;;;;;;;;;;5018250;28;20040;-78
2022/03/06 12:20:09;;;;;;;6.20;2.78;;;6.50;99.90;;;;;;5010250;28;20077;-79
2022/03/06 12:22:43;;;;;;;5.80;2.08;;;6.20;99.90;;;;;;5012953;28;20103;-77
2022/03/06 12:25:09;;;;;;;6.20;2.15;;;;;;;;;;5010958;28;20085;-77
2022/03/06 12:27:36;;;;;;;4.53;1.90;;;6.10;99.90;;;;;;5045273;28;20104;-76
2022/03/06 12:30:08;;;;;;;5.95;2.72;;;6.20;99.90;;;;;;5012010;28;20049;-77
2022/03/06 12:32:36;;;;;;;4.22;1.75;;;5.90;99.90;;;;;;5011817;28;20041;-79
2022/03/06 12:35:01;;;;;;;5.88;2.05;;;;;;;;;;5013485;28;20124;-77
2022/03/06 12:37:56;;;;;;;5.97;2.38;;;6.50;99.90;;;;;;5017787;28;20129;-78
2022/03/06 12:40:24;;;;;;;4.30;2.10;;;6.30;99.90;;;;;;5030422;28;20053;-78
2022/03/06 12:42:57;;;;;;;6.68;2.17;;;6.30;99.90;;;;;;5031636;28;20053;-78
2022/03/06 12:45:23;;;;;;;4.82;2.08;;;;;;;;;;5032066;28;20395;-78
2022/03/06 12:47:49;;;;;;;5.07;2.00;;;;;;;;;;5031370;28;20056;-78
2022/03/06 12:50:18;;;;;;;7.63;2.40;;;6.30;99.90;;;;;;5031094;28;20732;-78
2022/03/06 12:52:45;;;;;;;5.15;1.98;;;6.40;99.90;;;;;;5031234;28;20063;-77
2022/03/06 12:55:17;;;;;;;5.30;2.10;;;6.50;99.90;;;;;;5031547;28;20397;-78
2022/03/06 12:57:46;;;;;;;5.78;2.25;;;6.60;99.90;;;;;;5031413;28;20087;-78
2022/03/06 13:00:19;;;;;;;4.20;1.83;;;6.70;99.90;;;;;;5014193;28;20099;-79
2022/03/06 13:02:50;;;;;;;7.57;2.95;;;7.10;99.90;;;;;;5032163;28;20048;-77
2022/03/06 13:05:16;;;;;;;6.35;2.10;;;;;;;;;;5031806;28;20611;-78
2022/03/06 13:07:42;;;;;;;5.22;2.20;;;6.80;99.90;;;;;;5030920;28;20577;-77
2022/03/06 13:10:11;;;;;;;5.88;2.03;;;6.60;99.90;;;;;;5030997;28;20486;-79
2022/03/06 13:12:39;;;;;;;6.53;2.40;;;6.60;99.90;;;;;;5014761;28;20128;-78
2022/03/06 13:15:14;;;;;;;7.50;2.55;;;7.10;99.90;;;;;;5014489;28;20045;-78
2022/03/06 13:18:08;;;;;;;4.85;1.88;;;6.50;99.90;;;;;;5031273;28;20528;-78
2022/03/06 13:20:36;;;;;;;8.05;2.67;;;6.70;99.90;;;;;;5031279;28;20116;-79
2022/03/06 13:23:03;;;;;;;5.05;2.28;;;;;;;;;;5031359;28;20126;-79
2022/03/06 13:25:29;;;;;;;5.70;2.35;;;;;;;;;;5031716;28;20497;-79
2022/03/06 13:27:55;;;;;;;6.20;2.20;;;;;;;;;;5030567;28;20436;-79
2022/03/06 13:30:30;;;;;;;5.70;1.80;;;6.70;99.90;;;;;;5031507;28;20056;-79
2022/03/06 13:33:01;;;;;;;5.03;1.95;;;6.90;99.90;;;;;;5031330;28;20060;-79
2022/03/06 13:35:36;;;;;;;6.05;2.55;;;7.00;99.90;;;;;;5048310;28;20101;-78
2022/03/06 13:38:23;;;;;;;4.72;2.30;;;7.10;99.90;;;;;;5029346;28;20094;-78